createdAt,value
2023-01-19T00:00:49.930Z,-2.42
2023-01-19T00:03:17.816Z,-2.40
2023-01-19T00:05:45.005Z,-2.46
2023-01-19T00:08:15.648Z,-2.39
2023-01-19T00:10:44.480Z,-2.36
2023-01-19T00:13:11.437Z,-2.21
2023-01-19T00:15:38.209Z,-2.25
2023-01-19T00:18:05.696Z,-2.29
2023-01-19T00:20:32.806Z,-2.38
2023-01-19T00:23:00.411Z,-2.34
2023-01-19T00:25:28.596Z,-2.29
2023-01-19T00:27:57.028Z,-2.08
2023-01-19T00:30:23.639Z,-2.09
2023-01-19T00:32:50.164Z,-2.21
2023-01-19T00:35:16.895Z,-1.96
2023-01-19T00:37:46.048Z,-1.84
2023-01-19T00:40:13.935Z,-1.80
2023-01-19T00:42:41.663Z,-1.92
2023-01-19T00:45:13.374Z,-1.97
2023-01-19T00:47:40.711Z,-1.69
2023-01-19T00:50:11.797Z,-1.68
2023-01-19T00:52:39.591Z,-1.66
2023-01-19T00:55:07.268Z,-1.73
2023-01-19T00:57:34.478Z,-1.60
2023-01-19T01:00:01.714Z,-1.68
2023-01-19T01:02:28.622Z,-1.90
2023-01-19T01:04:56.649Z,-2.08
2023-01-19T01:07:26.107Z,-2.02
2023-01-19T01:09:52.910Z,-1.80
2023-01-19T01:12:19.681Z,-1.94
2023-01-19T01:14:46.198Z,-1.86
2023-01-19T01:17:14.233Z,-2.02
2023-01-19T01:19:41.583Z,-2.15
2023-01-19T01:22:09.716Z,-2.09
2023-01-19T01:24:36.548Z,-1.80
2023-01-19T01:27:03.264Z,-1.84
2023-01-19T01:29:30.554Z,-2.09
2023-01-19T01:31:57.206Z,-2.30
2023-01-19T01:34:23.996Z,-2.48
2023-01-19T01:36:51.272Z,-2.48
2023-01-19T01:39:18.597Z,-2.53
2023-01-19T01:41:45.550Z,-2.55
2023-01-19T01:44:50.259Z,-2.52
2023-01-19T01:47:36.370Z,-2.56
2023-01-19T01:50:14.995Z,-2.66
2023-01-19T01:53:06.545Z,-2.68
2023-01-19T01:55:46.040Z,-2.66
2023-01-19T01:58:14.817Z,-2.76
2023-01-19T02:01:00.946Z,-2.78
2023-01-19T02:03:29.084Z,-2.77
2023-01-19T02:05:59.484Z,-2.66
2023-01-19T02:08:54.204Z,-2.64
2023-01-19T02:11:39.561Z,-2.81
2023-01-19T02:14:06.546Z,-2.91
2023-01-19T02:16:34.828Z,-2.91
2023-01-19T02:19:03.143Z,-2.97
2023-01-19T02:21:38.310Z,-2.88
2023-01-19T02:24:06.463Z,-3.01
2023-01-19T02:26:42.666Z,-3.01
2023-01-19T02:29:13.108Z,-3.10
2023-01-19T02:31:40.939Z,-3.08
2023-01-19T02:34:13.727Z,-3.07
2023-01-19T02:36:52.128Z,-3.04
2023-01-19T02:39:22.357Z,-3.01
2023-01-19T02:41:54.625Z,-2.96
2023-01-19T02:44:22.882Z,-2.89
2023-01-19T02:46:49.505Z,-2.76
2023-01-19T02:49:16.111Z,-2.79
2023-01-19T02:51:43.947Z,-2.62
2023-01-19T02:54:33.108Z,-2.72
2023-01-19T02:57:17.903Z,-2.94
2023-01-19T03:00:02.499Z,-2.99
2023-01-19T03:02:54.536Z,-2.87
2023-01-19T03:05:34.048Z,-2.55
2023-01-19T03:08:17.251Z,-2.62
2023-01-19T03:11:10.206Z,-2.48
2023-01-19T03:13:43.620Z,-2.13
2023-01-19T03:16:13.995Z,-2.15
2023-01-19T03:18:45.227Z,-2.31
2023-01-19T03:21:14.279Z,-2.23
2023-01-19T03:23:44.652Z,-2.43
2023-01-19T03:26:18.378Z,-2.50
2023-01-19T03:28:47.368Z,-2.75
2023-01-19T03:31:18.096Z,-2.75
2023-01-19T03:33:50.405Z,-2.79
2023-01-19T03:36:24.243Z,-2.71
2023-01-19T03:38:53.271Z,-2.67
2023-01-19T03:41:22.604Z,-2.82
2023-01-19T03:43:51.950Z,-2.81
2023-01-19T03:46:19.873Z,-2.83
2023-01-19T03:48:47.750Z,-2.86
2023-01-19T03:51:16.029Z,-2.84
2023-01-19T03:53:42.995Z,-2.73
2023-01-19T03:56:24.435Z,-2.83
2023-01-19T03:58:51.866Z,-2.97
2023-01-19T04:01:22.726Z,-3.00
2023-01-19T04:03:50.410Z,-3.12
2023-01-19T04:06:18.203Z,-3.13
2023-01-19T04:08:44.853Z,-3.04
2023-01-19T04:11:12.236Z,-3.03
2023-01-19T04:13:39.096Z,-2.98
2023-01-19T04:16:06.444Z,-2.72
2023-01-19T04:18:34.878Z,-2.88
2023-01-19T04:21:03.323Z,-2.99
2023-01-19T04:23:30.111Z,-2.85
2023-01-19T04:26:01.901Z,-2.68
2023-01-19T04:28:28.852Z,-2.65
2023-01-19T04:30:55.412Z,-2.68
2023-01-19T04:33:22.421Z,-2.52
2023-01-19T04:35:50.705Z,-1.90
2023-01-19T04:38:19.689Z,-1.95
2023-01-19T04:40:48.316Z,-1.95
2023-01-19T04:43:15.185Z,-1.67
2023-01-19T04:45:41.695Z,-1.69
2023-01-19T04:48:08.202Z,-1.74
2023-01-19T04:50:34.724Z,-1.67
2023-01-19T04:53:02.482Z,-1.75
2023-01-19T04:55:29.416Z,-1.71
2023-01-19T04:57:56.653Z,-1.71
2023-01-19T05:00:23.513Z,-1.64
2023-01-19T05:02:49.974Z,-1.65
2023-01-19T05:05:17.401Z,-1.63
2023-01-19T05:07:44.444Z,-1.47
2023-01-19T05:10:11.971Z,-1.45
2023-01-19T05:12:38.953Z,-1.33
2023-01-19T05:15:07.721Z,-1.13
2023-01-19T05:17:34.955Z,-0.85
2023-01-19T05:20:03.615Z,-0.71
2023-01-19T05:22:32.124Z,-0.63
2023-01-19T05:24:58.816Z,-0.50
2023-01-19T05:27:25.641Z,-0.48
2023-01-19T05:29:52.100Z,-0.47
2023-01-19T05:32:19.207Z,-0.47
2023-01-19T05:34:46.463Z,-0.39
2023-01-19T05:37:13.875Z,-0.40
2023-01-19T05:39:40.622Z,-0.36
2023-01-19T05:42:07.369Z,-0.44
2023-01-19T05:44:33.956Z,-0.49
2023-01-19T05:47:00.712Z,-0.65
2023-01-19T05:49:27.847Z,-0.58
2023-01-19T05:51:54.316Z,-0.48
2023-01-19T05:54:21.340Z,-0.54
2023-01-19T05:56:47.877Z,-0.44
2023-01-19T05:59:15.257Z,-0.53
2023-01-19T06:01:42.004Z,-0.48
2023-01-19T06:04:09.312Z,-0.45
2023-01-19T06:06:35.920Z,-0.26
2023-01-19T06:09:03.069Z,-0.34
2023-01-19T06:11:29.643Z,-0.36
2023-01-19T06:13:56.719Z,-0.41
2023-01-19T06:16:23.261Z,-0.33
2023-01-19T06:18:50.385Z,-0.08
2023-01-19T06:21:16.991Z,-0.12
2023-01-19T06:23:43.628Z,-0.20
2023-01-19T06:26:10.770Z,-0.03
2023-01-19T06:28:37.648Z,-0.09
2023-01-19T06:31:04.915Z,-0.08
2023-01-19T06:33:31.653Z,0.08
2023-01-19T06:35:58.120Z,0.07
2023-01-19T06:38:24.729Z,-0.07
2023-01-19T06:40:58.487Z,-0.05
2023-01-19T06:43:25.913Z,0.03
2023-01-19T06:45:52.930Z,0.17
2023-01-19T06:48:19.641Z,0.21
2023-01-19T06:50:47.570Z,0.10
2023-01-19T06:53:16.480Z,0.25
2023-01-19T06:55:44.096Z,0.27
2023-01-19T06:58:11.506Z,0.38
2023-01-19T07:00:38.469Z,0.62
2023-01-19T07:03:08.896Z,0.41
2023-01-19T07:05:36.406Z,0.45
2023-01-19T07:08:03.882Z,0.36
2023-01-19T07:11:26.879Z,0.29
2023-01-19T07:13:17.415Z,0.33
2023-01-19T07:15:44.155Z,0.22
2023-01-19T07:18:10.848Z,0.26
2023-01-19T07:20:38.063Z,0.36
2023-01-19T07:23:04.602Z,0.40
2023-01-19T07:25:31.265Z,0.34
2023-01-19T07:28:00.791Z,0.31
2023-01-19T07:30:27.588Z,0.40
2023-01-19T07:32:54.889Z,0.30
2023-01-19T07:35:21.953Z,0.25
2023-01-19T07:37:49.068Z,0.33
2023-01-19T07:40:15.831Z,0.48
2023-01-19T07:42:48.563Z,0.53
2023-01-19T07:45:17.050Z,0.51
2023-01-19T07:47:51.669Z,0.36
2023-01-19T07:50:21.211Z,0.37
2023-01-19T07:52:53.277Z,0.43
2023-01-19T07:55:21.165Z,0.49
2023-01-19T07:57:51.448Z,0.41
2023-01-19T08:00:21.894Z,0.50
2023-01-19T08:02:51.947Z,0.45
2023-01-19T08:05:19.640Z,0.40
2023-01-19T08:07:47.025Z,0.39
2023-01-19T08:10:14.834Z,0.41
2023-01-19T08:12:42.480Z,0.50
2023-01-19T08:15:10.661Z,0.61
2023-01-19T08:17:37.742Z,0.43
2023-01-19T08:20:04.960Z,0.48
2023-01-19T08:22:32.128Z,0.54
2023-01-19T08:24:59.262Z,0.61
2023-01-19T08:27:25.743Z,0.60
2023-01-19T08:29:54.278Z,0.74
2023-01-19T08:32:20.851Z,0.70
2023-01-19T08:34:47.993Z,0.56
2023-01-19T08:37:14.439Z,0.55
2023-01-19T08:39:40.846Z,0.72
2023-01-19T08:42:07.493Z,0.47
2023-01-19T08:44:33.958Z,0.45
2023-01-19T08:47:00.887Z,0.40
2023-01-19T08:49:27.750Z,0.37
2023-01-19T08:51:55.425Z,0.59
2023-01-19T08:54:23.086Z,0.63
2023-01-19T08:56:49.600Z,0.59
2023-01-19T08:59:16.904Z,0.75
2023-01-19T09:01:43.460Z,0.65
2023-01-19T09:04:10.314Z,0.75
2023-01-19T09:06:37.156Z,0.62
2023-01-19T09:09:03.923Z,0.66
2023-01-19T09:11:30.888Z,0.74
2023-01-19T09:13:57.615Z,0.72
2023-01-19T09:16:26.873Z,0.66
2023-01-19T09:18:54.086Z,0.69
2023-01-19T09:21:21.967Z,0.64
2023-01-19T09:23:49.299Z,0.68
2023-01-19T09:26:16.553Z,0.69
2023-01-19T09:28:43.344Z,0.84
2023-01-19T09:31:09.832Z,0.71
2023-01-19T09:33:37.151Z,0.79
2023-01-19T09:36:03.843Z,0.76
2023-01-19T09:38:32.790Z,0.85
2023-01-19T09:41:00.501Z,0.96
2023-01-19T09:43:37.254Z,0.90
2023-01-19T09:46:12.306Z,0.82
2023-01-19T09:48:53.386Z,0.91
2023-01-19T09:51:23.757Z,1.22
2023-01-19T09:54:13.271Z,1.18
2023-01-19T09:56:40.479Z,1.05
2023-01-19T09:59:26.506Z,1.01
2023-01-19T10:02:02.481Z,1.03
2023-01-19T10:04:31.025Z,1.06
2023-01-19T10:07:20.574Z,1.08
2023-01-19T10:10:06.300Z,1.13
2023-01-19T10:13:11.988Z,1.16
2023-01-19T10:15:52.771Z,1.14
2023-01-19T10:18:51.445Z,1.26
2023-01-19T10:21:23.101Z,1.25
2023-01-19T10:24:01.425Z,1.26
2023-01-19T10:26:39.149Z,1.26
2023-01-19T10:29:08.438Z,1.30
2023-01-19T10:31:38.948Z,1.19
2023-01-19T10:34:05.565Z,1.40
2023-01-19T10:36:39.196Z,1.45
2023-01-19T10:39:06.632Z,1.59
2023-01-19T10:41:50.411Z,1.59
2023-01-19T10:44:28.919Z,1.45
2023-01-19T10:46:58.812Z,1.56
2023-01-19T10:49:27.984Z,1.68
2023-01-19T10:51:56.691Z,1.47
2023-01-19T10:54:24.447Z,1.45
2023-01-19T10:56:54.618Z,1.55
2023-01-19T10:59:36.804Z,1.43
2023-01-19T11:02:28.372Z,1.39
2023-01-19T11:04:57.339Z,1.52
2023-01-19T11:07:26.671Z,1.31
2023-01-19T11:10:19.665Z,1.23
2023-01-19T11:13:08.556Z,1.33
2023-01-19T11:15:52.049Z,1.45
2023-01-19T11:18:26.967Z,1.74
2023-01-19T11:20:56.223Z,1.57
2023-01-19T11:23:29.387Z,1.61
2023-01-19T11:25:59.133Z,1.90
2023-01-19T11:28:32.901Z,1.72
2023-01-19T11:31:02.436Z,2.00
2023-01-19T11:33:45.412Z,2.01
2023-01-19T11:36:26.189Z,2.21
2023-01-19T11:38:55.382Z,2.09
2023-01-19T11:41:35.516Z,2.27
2023-01-19T11:44:25.906Z,2.35
2023-01-19T11:47:00.960Z,2.37
2023-01-19T11:49:41.838Z,2.47
2023-01-19T11:52:20.373Z,2.59
2023-01-19T11:54:59.565Z,2.34
2023-01-19T11:57:27.143Z,2.42
2023-01-19T11:59:54.788Z,2.46
2023-01-19T12:02:31.953Z,2.45
2023-01-19T12:05:04.525Z,2.82
2023-01-19T12:07:35.944Z,2.89
2023-01-19T12:10:27.987Z,2.83
2023-01-19T12:12:56.501Z,2.85
2023-01-19T12:15:38.423Z,2.57
2023-01-19T12:18:08.393Z,2.75
2023-01-19T12:20:40.250Z,2.83
2023-01-19T12:23:13.167Z,3.07
2023-01-19T12:25:54.858Z,3.31
2023-01-19T12:28:36.570Z,3.17
2023-01-19T12:31:04.137Z,3.46
2023-01-19T12:33:39.894Z,3.60
2023-01-19T12:36:32.089Z,3.78
2023-01-19T12:39:14.886Z,3.98
2023-01-19T12:41:42.784Z,4.08
2023-01-19T12:44:12.152Z,4.57
2023-01-19T12:46:43.756Z,4.93
2023-01-19T12:49:20.818Z,4.94
2023-01-19T12:51:48.292Z,4.09
2023-01-19T12:54:32.666Z,3.61
2023-01-19T12:57:08.166Z,3.56
2023-01-19T12:59:37.277Z,3.66
2023-01-19T13:02:47.632Z,3.79
2023-01-19T13:05:16.521Z,4.35
2023-01-19T13:08:01.638Z,4.65
2023-01-19T13:10:59.020Z,4.78
2023-01-19T13:13:33.375Z,4.95
2023-01-19T13:16:20.175Z,5.10
2023-01-19T13:18:53.039Z,5.07
2023-01-19T13:21:33.090Z,4.83
2023-01-19T13:24:05.847Z,4.76
2023-01-19T13:26:39.113Z,4.99
2023-01-19T13:29:15.594Z,5.25
2023-01-19T13:31:44.672Z,5.21
2023-01-19T13:34:18.700Z,5.16
2023-01-19T13:36:49.841Z,4.93
2023-01-19T13:39:27.129Z,4.67
2023-01-19T13:41:59.190Z,4.77
2023-01-19T13:44:28.730Z,4.62
2023-01-19T13:46:57.419Z,4.36
2023-01-19T13:49:35.092Z,4.29
2023-01-19T13:52:04.623Z,4.21
2023-01-19T13:54:31.623Z,4.29
2023-01-19T13:56:58.420Z,4.21
2023-01-19T13:59:25.112Z,4.19
2023-01-19T14:01:54.147Z,4.18
2023-01-19T14:04:33.074Z,4.42
2023-01-19T14:07:04.117Z,4.17
2023-01-19T14:09:30.951Z,4.27
2023-01-19T14:12:17.399Z,4.15
2023-01-19T14:14:47.153Z,4.12
2023-01-19T14:17:30.135Z,4.03
2023-01-19T14:19:58.558Z,3.96
2023-01-19T14:22:45.285Z,3.84
2023-01-19T14:25:32.928Z,3.87
2023-01-19T14:28:28.831Z,3.75
2023-01-19T14:30:55.328Z,3.63
2023-01-19T14:33:42.424Z,3.57
2023-01-19T14:36:25.136Z,3.59
2023-01-19T14:38:53.820Z,3.62
2023-01-19T14:41:35.161Z,3.69
2023-01-19T14:44:03.122Z,3.73
2023-01-19T14:46:30.202Z,3.71
2023-01-19T14:49:02.947Z,3.65
2023-01-19T14:51:31.248Z,3.63
2023-01-19T14:54:01.475Z,3.58
2023-01-19T14:56:30.467Z,3.58
2023-01-19T14:58:58.719Z,3.75
2023-01-19T15:01:30.827Z,3.63
2023-01-19T15:03:58.383Z,3.72
2023-01-19T15:06:26.188Z,3.85
2023-01-19T15:08:54.145Z,3.73
2023-01-19T15:11:29.037Z,3.82
2023-01-19T15:13:57.996Z,3.63
2023-01-19T15:16:26.691Z,3.55
2023-01-19T15:18:53.290Z,3.57
2023-01-19T15:21:23.569Z,3.36
2023-01-19T15:23:50.434Z,3.34
2023-01-19T15:26:19.713Z,3.45
2023-01-19T15:28:49.069Z,3.23
2023-01-19T15:31:21.965Z,3.21
2023-01-19T15:33:48.834Z,3.37
2023-01-19T15:36:19.845Z,3.27
2023-01-19T15:38:47.686Z,3.23
2023-01-19T15:41:18.843Z,3.07
2023-01-19T15:43:46.304Z,3.03
2023-01-19T15:46:15.798Z,2.99
2023-01-19T15:48:42.521Z,2.94
2023-01-19T15:51:14.600Z,2.93
2023-01-19T15:53:43.246Z,2.91
2023-01-19T15:56:18.183Z,2.90
2023-01-19T15:58:45.700Z,2.85
2023-01-19T16:01:15.345Z,2.69
2023-01-19T16:03:43.032Z,2.57
2023-01-19T16:06:09.732Z,2.57
2023-01-19T16:08:37.841Z,2.72
2023-01-19T16:11:09.957Z,2.63
2023-01-19T16:13:37.166Z,2.34
2023-01-19T16:16:13.588Z,2.20
2023-01-19T16:18:40.646Z,2.08
2023-01-19T16:21:07.221Z,1.99
2023-01-19T16:23:34.370Z,1.92
2023-01-19T16:26:07.710Z,2.00
2023-01-19T16:28:37.703Z,1.79
2023-01-19T16:31:04.665Z,1.68
2023-01-19T16:33:31.373Z,1.65
2023-01-19T16:35:57.899Z,1.61
2023-01-19T16:38:24.816Z,1.59
2023-01-19T16:40:51.322Z,1.50
2023-01-19T16:43:18.539Z,1.56
2023-01-19T16:46:02.701Z,1.52
2023-01-19T16:48:30.663Z,1.52
2023-01-19T16:51:05.778Z,1.64
2023-01-19T16:53:37.182Z,1.63
2023-01-19T16:56:12.862Z,1.49
2023-01-19T16:58:40.348Z,1.41
2023-01-19T17:01:17.786Z,1.39
2023-01-19T17:03:46.473Z,1.37
2023-01-19T17:06:16.141Z,1.39
2023-01-19T17:08:42.925Z,1.62
2023-01-19T17:11:20.551Z,1.47
2023-01-19T17:14:00.385Z,1.47
2023-01-19T17:16:30.306Z,1.65
2023-01-19T17:19:03.726Z,1.46
2023-01-19T17:21:33.081Z,1.36
2023-01-19T17:24:01.232Z,1.28
2023-01-19T17:26:30.764Z,1.38
2023-01-19T17:29:09.524Z,1.45
2023-01-19T17:31:37.343Z,1.36
2023-01-19T17:34:09.789Z,1.35
2023-01-19T17:36:38.007Z,1.33
2023-01-19T17:39:07.888Z,1.31
2023-01-19T17:41:35.674Z,1.30
2023-01-19T17:44:03.109Z,1.25
2023-01-19T17:46:30.727Z,1.26
2023-01-19T17:49:01.565Z,1.39
2023-01-19T17:51:29.880Z,1.35
2023-01-19T17:53:57.565Z,1.41
2023-01-19T17:56:29.275Z,1.63
2023-01-19T17:58:56.744Z,1.76
2023-01-19T18:01:28.641Z,1.55
2023-01-19T18:03:56.064Z,1.62
2023-01-19T18:06:22.968Z,1.38
2023-01-19T18:08:50.737Z,1.53
2023-01-19T18:11:19.767Z,1.47
2023-01-19T18:13:48.289Z,1.47
2023-01-19T18:16:19.176Z,1.38
2023-01-19T18:18:46.208Z,1.55
2023-01-19T18:21:14.228Z,1.29
2023-01-19T18:23:45.474Z,1.25
2023-01-19T18:26:15.165Z,1.08
2023-01-19T18:28:41.954Z,1.07
2023-01-19T18:31:10.946Z,1.07
2023-01-19T18:33:39.035Z,1.19
2023-01-19T18:36:06.644Z,1.10
2023-01-19T18:38:34.294Z,1.01
2023-01-19T18:41:01.684Z,0.95
2023-01-19T18:43:29.076Z,0.92
2023-01-19T18:45:55.714Z,0.90
2023-01-19T18:48:22.719Z,0.98
2023-01-19T18:50:49.414Z,0.97
2023-01-19T18:53:16.824Z,0.99
2023-01-19T18:55:56.967Z,1.19
2023-01-19T18:58:24.143Z,1.10
2023-01-19T19:00:51.101Z,0.96
2023-01-19T19:03:17.612Z,0.86
2023-01-19T19:05:44.261Z,0.78
2023-01-19T19:08:18.633Z,0.69
2023-01-19T19:10:46.203Z,0.56
2023-01-19T19:13:15.243Z,0.51
2023-01-19T19:15:41.829Z,0.59
2023-01-19T19:18:08.918Z,0.35
2023-01-19T19:20:39.375Z,0.30
2023-01-19T19:23:06.315Z,0.06
2023-01-19T19:25:34.035Z,0.05
2023-01-19T19:28:01.377Z,0.00
2023-01-19T19:30:28.232Z,0.05
2023-01-19T19:32:56.349Z,-0.18
2023-01-19T19:35:23.629Z,-0.33
2023-01-19T19:37:51.335Z,-0.18
2023-01-19T19:40:17.943Z,-0.15
2023-01-19T19:42:45.128Z,-0.21
2023-01-19T19:45:12.275Z,-0.28
2023-01-19T19:47:38.775Z,-0.40
2023-01-19T19:50:05.881Z,-0.59
2023-01-19T19:52:38.240Z,-0.69
2023-01-19T19:55:06.576Z,-0.80
2023-01-19T19:57:33.859Z,-0.56
2023-01-19T20:00:00.562Z,-0.42
2023-01-19T20:02:27.425Z,-0.60
2023-01-19T20:04:54.122Z,-0.58
2023-01-19T20:07:20.637Z,-0.58
2023-01-19T20:09:47.520Z,-0.61
2023-01-19T20:12:14.359Z,-0.50
2023-01-19T20:14:40.804Z,-0.56
2023-01-19T20:17:07.433Z,-0.52
2023-01-19T20:19:33.870Z,-0.51
2023-01-19T20:22:00.660Z,-0.53
2023-01-19T20:24:27.526Z,-0.56
2023-01-19T20:26:56.172Z,-0.54
2023-01-19T20:29:23.116Z,-0.47
2023-01-19T20:31:54.021Z,-0.44
2023-01-19T20:34:23.196Z,-0.35
2023-01-19T20:36:51.507Z,-0.27
2023-01-19T20:39:19.969Z,-0.31
2023-01-19T20:41:49.019Z,-0.28
2023-01-19T20:44:20.158Z,-0.42
2023-01-19T20:46:46.993Z,-0.04
2023-01-19T20:49:14.132Z,-0.06
2023-01-19T20:51:45.018Z,-0.11
2023-01-19T20:54:13.431Z,-0.07
2023-01-19T20:56:41.506Z,0.01
2023-01-19T20:59:09.967Z,-0.18
2023-01-19T21:01:36.723Z,-0.21
2023-01-19T21:04:03.885Z,-0.13
2023-01-19T21:06:31.152Z,0.13
2023-01-19T21:08:57.990Z,-0.01
2023-01-19T21:11:24.894Z,-0.16
2023-01-19T21:13:55.554Z,-0.15
2023-01-19T21:16:23.997Z,-0.07
2023-01-19T21:18:51.711Z,-0.16
2023-01-19T21:21:29.756Z,-0.17
2023-01-19T21:23:58.925Z,-0.28
2023-01-19T21:26:25.957Z,-0.36
2023-01-19T21:28:52.731Z,-0.36
2023-01-19T21:31:21.205Z,-0.36
2023-01-19T21:33:49.181Z,-0.31
2023-01-19T21:36:15.712Z,-0.22
2023-01-19T21:38:42.410Z,-0.06
2023-01-19T21:41:12.516Z,-0.01
2023-01-19T21:43:41.521Z,-0.22
2023-01-19T21:46:14.267Z,-0.12
2023-01-19T21:48:41.714Z,-0.05
2023-01-19T21:51:09.292Z,-0.07
2023-01-19T21:53:35.871Z,-0.17
2023-01-19T21:56:02.374Z,-0.15
2023-01-19T21:58:29.522Z,-0.18
2023-01-19T22:01:00.971Z,0.00
2023-01-19T22:03:28.962Z,0.05
2023-01-19T22:05:58.333Z,0.08
2023-01-19T22:08:24.999Z,0.19
2023-01-19T22:10:51.465Z,0.25
2023-01-19T22:13:18.228Z,0.34
2023-01-19T22:15:47.228Z,0.19
2023-01-19T22:18:13.665Z,0.18
2023-01-19T22:20:40.227Z,0.24
2023-01-19T22:23:06.698Z,0.30
2023-01-19T22:25:33.784Z,0.25
2023-01-19T22:28:00.591Z,0.23
2023-01-19T22:30:27.745Z,0.06
2023-01-19T22:32:54.524Z,0.10
2023-01-19T22:35:21.234Z,0.24
2023-01-19T22:37:48.167Z,0.20
2023-01-19T22:40:15.084Z,0.33
2023-01-19T22:42:45.804Z,0.23
2023-01-19T22:45:12.801Z,0.15
2023-01-19T22:47:39.421Z,0.15
2023-01-19T22:50:06.521Z,0.25
2023-01-19T22:52:34.048Z,0.21
2023-01-19T22:55:00.714Z,0.17
2023-01-19T22:57:27.456Z,0.07
2023-01-19T22:59:53.926Z,0.11
2023-01-19T23:02:21.170Z,0.13
2023-01-19T23:04:48.169Z,0.20
2023-01-19T23:07:15.027Z,0.25
2023-01-19T23:09:41.376Z,0.28
2023-01-19T23:12:08.096Z,0.32
2023-01-19T23:14:36.064Z,0.32
2023-01-19T23:17:02.804Z,0.53
2023-01-19T23:19:29.281Z,0.41
2023-01-19T23:21:56.064Z,0.37
2023-01-19T23:24:22.878Z,0.37
2023-01-19T23:26:50.614Z,0.38
2023-01-19T23:29:17.930Z,0.18
2023-01-19T23:31:47.728Z,0.23
2023-01-19T23:34:15.430Z,0.25
2023-01-19T23:36:43.006Z,0.22
2023-01-19T23:39:18.641Z,0.13
2023-01-19T23:41:45.777Z,0.17
2023-01-19T23:44:13.009Z,0.26
2023-01-19T23:46:39.896Z,0.28
2023-01-19T23:49:06.637Z,0.27
2023-01-19T23:51:34.812Z,0.23
2023-01-19T23:54:01.594Z,0.32
2023-01-19T23:56:34.203Z,0.25
2023-01-19T23:59:09.586Z,0.27
